sensor_id;sensor_type;location;lat;lon;timestamp;temperature;humidity
3134;DHT22;1577;49.912;10.924;2023-05-18T00:01:59;7.50;99.90
3134;DHT22;1577;49.912;10.924;2023-05-18T00:04:25;7.40;99.90
3134;DHT22;1577;49.912;10.924;2023-05-18T00:06:53;7.40;99.90
3134;DHT22;1577;49.912;10.924;2023-05-18T00:09:24;7.40;99.90
3134;DHT22;1577;49.912;10.924;2023-05-18T00:11:53;7.40;99.90
3134;DHT22;1577;49.912;10.924;2023-05-18T00:14:19;7.30;99.90
3134;DHT22;1577;49.912;10.924;2023-05-18T00:16:46;7.30;99.90
3134;DHT22;1577;49.912;10.924;2023-05-18T00:19:12;7.30;99.90
3134;DHT22;1577;49.912;10.924;2023-05-18T00:21:41;7.20;99.90
3134;DHT22;1577;49.912;10.924;2023-05-18T00:24:08;7.20;99.90
3134;DHT22;1577;49.912;10.924;2023-05-18T00:26:36;7.10;99.90
3134;DHT22;1577;49.912;10.924;2023-05-18T00:29:02;7.10;99.90
3134;DHT22;1577;49.912;10.924;2023-05-18T00:31:27;7.00;99.90
3134;DHT22;1577;49.912;10.924;2023-05-18T00:33:53;7.00;99.90
3134;DHT22;1577;49.912;10.924;2023-05-18T00:36:19;6.90;99.90
3134;DHT22;1577;49.912;10.924;2023-05-18T00:38:44;6.90;99.90
3134;DHT22;1577;49.912;10.924;2023-05-18T00:41:10;6.80;99.90
3134;DHT22;1577;49.912;10.924;2023-05-18T00:43:39;6.70;99.90
3134;DHT22;1577;49.912;10.924;2023-05-18T00:46:05;6.80;99.90
3134;DHT22;1577;49.912;10.924;2023-05-18T00:48:31;6.70;99.90
3134;DHT22;1577;49.912;10.924;2023-05-18T00:50:56;6.70;99.90
3134;DHT22;1577;49.912;10.924;2023-05-18T00:53:22;6.70;99.90
3134;DHT22;1577;49.912;10.924;2023-05-18T00:55:48;6.60;99.90
3134;DHT22;1577;49.912;10.924;2023-05-18T00:58:13;6.60;99.90
3134;DHT22;1577;49.912;10.924;2023-05-18T01:00:39;6.60;99.90
3134;DHT22;1577;49.912;10.924;2023-05-18T01:03:05;6.50;99.90
3134;DHT22;1577;49.912;10.924;2023-05-18T01:05:34;6.50;99.90
3134;DHT22;1577;49.912;10.924;2023-05-18T01:08:00;6.50;99.90
3134;DHT22;1577;49.912;10.924;2023-05-18T01:10:28;6.40;99.90
3134;DHT22;1577;49.912;10.924;2023-05-18T01:13:08;6.40;99.90
3134;DHT22;1577;49.912;10.924;2023-05-18T01:15:37;6.40;99.90
3134;DHT22;1577;49.912;10.924;2023-05-18T01:18:10;6.30;99.90
3134;DHT22;1577;49.912;10.924;2023-05-18T01:20:58;6.30;99.90
3134;DHT22;1577;49.912;10.924;2023-05-18T01:23:52;6.30;99.90
3134;DHT22;1577;49.912;10.924;2023-05-18T01:26:29;6.20;99.90
3134;DHT22;1577;49.912;10.924;2023-05-18T01:29:07;6.20;99.90
3134;DHT22;1577;49.912;10.924;2023-05-18T01:31:34;6.20;99.90
3134;DHT22;1577;49.912;10.924;2023-05-18T01:34:00;6.20;99.90
3134;DHT22;1577;49.912;10.924;2023-05-18T01:36:25;6.10;99.90
3134;DHT22;1577;49.912;10.924;2023-05-18T01:38:51;6.10;99.90
3134;DHT22;1577;49.912;10.924;2023-05-18T01:41:25;6.10;99.90
3134;DHT22;1577;49.912;10.924;2023-05-18T01:43:59;6.10;99.90
3134;DHT22;1577;49.912;10.924;2023-05-18T01:49:12;6.00;99.90
3134;DHT22;1577;49.912;10.924;2023-05-18T01:51:43;6.00;99.90
3134;DHT22;1577;49.912;10.924;2023-05-18T01:54:10;6.00;99.90
3134;DHT22;1577;49.912;10.924;2023-05-18T01:56:38;6.00;99.90
3134;DHT22;1577;49.912;10.924;2023-05-18T01:59:05;5.90;99.90
3134;DHT22;1577;49.912;10.924;2023-05-18T02:01:31;5.90;99.90
3134;DHT22;1577;49.912;10.924;2023-05-18T02:03:56;5.90;99.90
3134;DHT22;1577;49.912;10.924;2023-05-18T02:06:22;5.90;99.90
3134;DHT22;1577;49.912;10.924;2023-05-18T02:08:48;5.80;99.90
3134;DHT22;1577;49.912;10.924;2023-05-18T02:11:13;5.80;99.90
3134;DHT22;1577;49.912;10.924;2023-05-18T02:13:39;5.80;99.90
3134;DHT22;1577;49.912;10.924;2023-05-18T02:16:05;5.70;99.90
3134;DHT22;1577;49.912;10.924;2023-05-18T02:18:31;5.70;99.90
3134;DHT22;1577;49.912;10.924;2023-05-18T02:20:59;5.70;99.90
3134;DHT22;1577;49.912;10.924;2023-05-18T02:23:25;5.70;99.90
3134;DHT22;1577;49.912;10.924;2023-05-18T02:25:50;5.70;99.90
3134;DHT22;1577;49.912;10.924;2023-05-18T02:28:16;5.60;99.90
3134;DHT22;1577;49.912;10.924;2023-05-18T02:30:42;5.60;99.90
3134;DHT22;1577;49.912;10.924;2023-05-18T02:33:07;5.60;99.90
3134;DHT22;1577;49.912;10.924;2023-05-18T02:35:34;5.50;99.90
3134;DHT22;1577;49.912;10.924;2023-05-18T02:37:59;5.50;99.90
3134;DHT22;1577;49.912;10.924;2023-05-18T02:40:27;5.50;99.90
3134;DHT22;1577;49.912;10.924;2023-05-18T02:42:52;5.50;99.90
3134;DHT22;1577;49.912;10.924;2023-05-18T02:45:18;5.40;99.90
3134;DHT22;1577;49.912;10.924;2023-05-18T02:47:45;5.40;99.90
3134;DHT22;1577;49.912;10.924;2023-05-18T02:50:10;5.40;99.90
3134;DHT22;1577;49.912;10.924;2023-05-18T02:52:36;5.40;99.90
3134;DHT22;1577;49.912;10.924;2023-05-18T02:55:03;5.40;99.90
3134;DHT22;1577;49.912;10.924;2023-05-18T02:57:29;5.30;99.90
3134;DHT22;1577;49.912;10.924;2023-05-18T02:59:56;5.30;99.90
3134;DHT22;1577;49.912;10.924;2023-05-18T03:02:21;5.30;99.90
3134;DHT22;1577;49.912;10.924;2023-05-18T03:04:48;5.30;99.90
3134;DHT22;1577;49.912;10.924;2023-05-18T03:07:24;5.20;99.90
3134;DHT22;1577;49.912;10.924;2023-05-18T03:09:52;5.10;99.90
3134;DHT22;1577;49.912;10.924;2023-05-18T03:12:17;5.00;99.90
3134;DHT22;1577;49.912;10.924;2023-05-18T03:14:43;5.00;99.90
3134;DHT22;1577;49.912;10.924;2023-05-18T03:17:08;4.90;99.90
3134;DHT22;1577;49.912;10.924;2023-05-18T03:19:34;4.80;99.90
3134;DHT22;1577;49.912;10.924;2023-05-18T03:22:00;4.80;99.90
3134;DHT22;1577;49.912;10.924;2023-05-18T03:24:25;4.90;99.90
3134;DHT22;1577;49.912;10.924;2023-05-18T03:26:54;5.00;99.90
3134;DHT22;1577;49.912;10.924;2023-05-18T03:29:21;5.00;99.90
3134;DHT22;1577;49.912;10.924;2023-05-18T03:31:47;4.90;99.90
3134;DHT22;1577;49.912;10.924;2023-05-18T03:34:13;4.90;99.90
3134;DHT22;1577;49.912;10.924;2023-05-18T03:36:39;4.90;99.90
3134;DHT22;1577;49.912;10.924;2023-05-18T03:39:05;5.00;99.90
3134;DHT22;1577;49.912;10.924;2023-05-18T03:41:31;5.00;99.90
3134;DHT22;1577;49.912;10.924;2023-05-18T03:43:57;5.10;99.90
3134;DHT22;1577;49.912;10.924;2023-05-18T03:46:23;5.10;99.90
3134;DHT22;1577;49.912;10.924;2023-05-18T03:48:49;5.20;99.90
3134;DHT22;1577;49.912;10.924;2023-05-18T03:51:15;5.10;99.90
3134;DHT22;1577;49.912;10.924;2023-05-18T03:53:40;5.20;99.90
3134;DHT22;1577;49.912;10.924;2023-05-18T03:56:06;5.10;99.90
3134;DHT22;1577;49.912;10.924;2023-05-18T03:58:32;5.10;99.90
3134;DHT22;1577;49.912;10.924;2023-05-18T04:00:59;5.10;99.90
3134;DHT22;1577;49.912;10.924;2023-05-18T04:03:25;5.10;99.90
3134;DHT22;1577;49.912;10.924;2023-05-18T04:05:52;5.10;99.90
3134;DHT22;1577;49.912;10.924;2023-05-18T04:08:18;5.20;99.90
3134;DHT22;1577;49.912;10.924;2023-05-18T04:10:44;5.30;99.90
3134;DHT22;1577;49.912;10.924;2023-05-18T04:13:10;5.40;99.90
3134;DHT22;1577;49.912;10.924;2023-05-18T04:15:36;5.30;99.90
3134;DHT22;1577;49.912;10.924;2023-05-18T04:18:02;5.40;99.90
3134;DHT22;1577;49.912;10.924;2023-05-18T04:20:28;5.50;99.90
3134;DHT22;1577;49.912;10.924;2023-05-18T04:22:54;5.70;99.90
3134;DHT22;1577;49.912;10.924;2023-05-18T04:25:22;5.80;99.90
3134;DHT22;1577;49.912;10.924;2023-05-18T04:27:52;6.00;99.90
3134;DHT22;1577;49.912;10.924;2023-05-18T04:30:19;6.00;99.90
3134;DHT22;1577;49.912;10.924;2023-05-18T04:32:47;6.00;99.90
3134;DHT22;1577;49.912;10.924;2023-05-18T04:35:12;6.10;99.90
3134;DHT22;1577;49.912;10.924;2023-05-18T04:37:38;6.30;99.90
3134;DHT22;1577;49.912;10.924;2023-05-18T04:40:10;6.40;99.90
3134;DHT22;1577;49.912;10.924;2023-05-18T04:42:41;6.40;99.90
3134;DHT22;1577;49.912;10.924;2023-05-18T04:45:18;6.60;99.90
3134;DHT22;1577;49.912;10.924;2023-05-18T04:47:45;6.60;99.90
3134;DHT22;1577;49.912;10.924;2023-05-18T04:50:13;6.70;99.90
3134;DHT22;1577;49.912;10.924;2023-05-18T04:52:40;6.80;99.90
3134;DHT22;1577;49.912;10.924;2023-05-18T04:55:06;6.90;99.90
3134;DHT22;1577;49.912;10.924;2023-05-18T04:57:35;7.00;99.90
3134;DHT22;1577;49.912;10.924;2023-05-18T05:00:01;7.00;99.90
3134;DHT22;1577;49.912;10.924;2023-05-18T05:02:30;7.00;99.90
3134;DHT22;1577;49.912;10.924;2023-05-18T05:04:55;7.10;99.90
3134;DHT22;1577;49.912;10.924;2023-05-18T05:07:21;7.30;99.90
3134;DHT22;1577;49.912;10.924;2023-05-18T05:09:46;7.40;99.90
3134;DHT22;1577;49.912;10.924;2023-05-18T05:12:12;7.50;99.90
3134;DHT22;1577;49.912;10.924;2023-05-18T05:14:38;7.70;99.90
3134;DHT22;1577;49.912;10.924;2023-05-18T05:17:03;7.70;99.90
3134;DHT22;1577;49.912;10.924;2023-05-18T05:19:29;7.80;99.90
3134;DHT22;1577;49.912;10.924;2023-05-18T05:21:55;8.00;99.90
3134;DHT22;1577;49.912;10.924;2023-05-18T05:24:20;8.10;99.90
3134;DHT22;1577;49.912;10.924;2023-05-18T05:26:46;8.20;99.90
3134;DHT22;1577;49.912;10.924;2023-05-18T05:29:11;8.40;99.90
3134;DHT22;1577;49.912;10.924;2023-05-18T05:31:37;8.50;99.90
3134;DHT22;1577;49.912;10.924;2023-05-18T05:34:02;8.60;99.90
3134;DHT22;1577;49.912;10.924;2023-05-18T05:36:28;8.70;99.90
3134;DHT22;1577;49.912;10.924;2023-05-18T05:38:53;8.80;99.90
3134;DHT22;1577;49.912;10.924;2023-05-18T05:41:19;8.80;99.90
3134;DHT22;1577;49.912;10.924;2023-05-18T05:43:46;8.90;99.90
3134;DHT22;1577;49.912;10.924;2023-05-18T05:46:12;9.00;99.90
3134;DHT22;1577;49.912;10.924;2023-05-18T05:48:38;9.10;99.90
3134;DHT22;1577;49.912;10.924;2023-05-18T05:51:03;9.10;99.90
3134;DHT22;1577;49.912;10.924;2023-05-18T05:53:29;9.20;99.90
3134;DHT22;1577;49.912;10.924;2023-05-18T05:55:54;9.20;99.90
3134;DHT22;1577;49.912;10.924;2023-05-18T05:58:20;9.30;99.90
3134;DHT22;1577;49.912;10.924;2023-05-18T06:00:45;9.40;99.90
3134;DHT22;1577;49.912;10.924;2023-05-18T06:03:11;9.40;99.90
3134;DHT22;1577;49.912;10.924;2023-05-18T06:05:36;9.40;99.90
3134;DHT22;1577;49.912;10.924;2023-05-18T06:08:02;9.40;99.90
3134;DHT22;1577;49.912;10.924;2023-05-18T06:10:28;9.50;99.90
3134;DHT22;1577;49.912;10.924;2023-05-18T06:12:53;9.60;99.90
3134;DHT22;1577;49.912;10.924;2023-05-18T06:15:19;9.70;99.90
3134;DHT22;1577;49.912;10.924;2023-05-18T06:17:44;9.80;99.90
3134;DHT22;1577;49.912;10.924;2023-05-18T06:20:10;9.80;99.90
3134;DHT22;1577;49.912;10.924;2023-05-18T06:22:36;9.80;99.90
3134;DHT22;1577;49.912;10.924;2023-05-18T06:25:02;9.90;99.90
3134;DHT22;1577;49.912;10.924;2023-05-18T06:27:28;10.00;99.90
3134;DHT22;1577;49.912;10.924;2023-05-18T06:29:53;10.10;99.90
3134;DHT22;1577;49.912;10.924;2023-05-18T06:32:19;10.20;99.90
3134;DHT22;1577;49.912;10.924;2023-05-18T06:34:45;10.30;99.90
3134;DHT22;1577;49.912;10.924;2023-05-18T06:37:11;10.40;99.90
3134;DHT22;1577;49.912;10.924;2023-05-18T06:39:37;10.60;99.90
3134;DHT22;1577;49.912;10.924;2023-05-18T06:42:03;10.80;99.90
3134;DHT22;1577;49.912;10.924;2023-05-18T06:44:29;11.50;99.90
3134;DHT22;1577;49.912;10.924;2023-05-18T06:46:54;12.60;99.90
3134;DHT22;1577;49.912;10.924;2023-05-18T06:49:20;13.70;99.30
3134;DHT22;1577;49.912;10.924;2023-05-18T06:51:46;14.90;98.30
3134;DHT22;1577;49.912;10.924;2023-05-18T06:54:12;15.80;95.50
3134;DHT22;1577;49.912;10.924;2023-05-18T06:56:37;16.40;93.70
3134;DHT22;1577;49.912;10.924;2023-05-18T06:59:03;16.80;92.80
3134;DHT22;1577;49.912;10.924;2023-05-18T07:01:29;17.40;92.00
3134;DHT22;1577;49.912;10.924;2023-05-18T07:03:54;17.90;90.30
3134;DHT22;1577;49.912;10.924;2023-05-18T07:06:20;17.90;89.40
3134;DHT22;1577;49.912;10.924;2023-05-18T07:08:45;18.10;88.20
3134;DHT22;1577;49.912;10.924;2023-05-18T07:11:12;18.30;86.90
3134;DHT22;1577;49.912;10.924;2023-05-18T07:13:37;18.70;86.30
3134;DHT22;1577;49.912;10.924;2023-05-18T07:16:03;19.10;85.00
3134;DHT22;1577;49.912;10.924;2023-05-18T07:18:29;19.70;83.70
3134;DHT22;1577;49.912;10.924;2023-05-18T07:20:57;19.80;81.80
3134;DHT22;1577;49.912;10.924;2023-05-18T07:23:23;19.90;80.20
3134;DHT22;1577;49.912;10.924;2023-05-18T07:25:48;19.90;79.70
3134;DHT22;1577;49.912;10.924;2023-05-18T07:28:14;19.70;78.70
3134;DHT22;1577;49.912;10.924;2023-05-18T07:30:40;19.60;78.10
3134;DHT22;1577;49.912;10.924;2023-05-18T07:33:05;19.70;79.70
3134;DHT22;1577;49.912;10.924;2023-05-18T07:35:31;20.30;79.50
3134;DHT22;1577;49.912;10.924;2023-05-18T07:37:57;20.80;76.10
3134;DHT22;1577;49.912;10.924;2023-05-18T07:40:22;20.60;75.00
3134;DHT22;1577;49.912;10.924;2023-05-18T07:42:48;20.90;75.30
3134;DHT22;1577;49.912;10.924;2023-05-18T07:45:14;21.20;74.00
3134;DHT22;1577;49.912;10.924;2023-05-18T07:47:39;21.20;72.10
3134;DHT22;1577;49.912;10.924;2023-05-18T07:50:05;21.20;71.60
3134;DHT22;1577;49.912;10.924;2023-05-18T07:52:31;21.00;71.00
3134;DHT22;1577;49.912;10.924;2023-05-18T07:54:57;21.20;72.00
3134;DHT22;1577;49.912;10.924;2023-05-18T07:57:23;21.40;72.60
3134;DHT22;1577;49.912;10.924;2023-05-18T07:59:49;21.70;70.80
3134;DHT22;1577;49.912;10.924;2023-05-18T08:02:15;21.80;69.80
3134;DHT22;1577;49.912;10.924;2023-05-18T08:04:41;21.80;70.40
3134;DHT22;1577;49.912;10.924;2023-05-18T08:07:07;22.00;69.00
3134;DHT22;1577;49.912;10.924;2023-05-18T08:09:33;22.30;67.40
3134;DHT22;1577;49.912;10.924;2023-05-18T08:11:58;22.50;67.50
3134;DHT22;1577;49.912;10.924;2023-05-18T08:14:24;22.60;66.20
3134;DHT22;1577;49.912;10.924;2023-05-18T08:16:50;22.50;65.50
3134;DHT22;1577;49.912;10.924;2023-05-18T08:19:16;22.10;65.40
3134;DHT22;1577;49.912;10.924;2023-05-18T08:21:41;22.30;67.40
3134;DHT22;1577;49.912;10.924;2023-05-18T08:24:11;22.50;65.30
3134;DHT22;1577;49.912;10.924;2023-05-18T08:26:37;22.80;64.40
3134;DHT22;1577;49.912;10.924;2023-05-18T08:29:02;23.00;63.90
3134;DHT22;1577;49.912;10.924;2023-05-18T08:31:38;22.90;63.30
3134;DHT22;1577;49.912;10.924;2023-05-18T08:34:04;22.70;62.60
3134;DHT22;1577;49.912;10.924;2023-05-18T08:36:31;22.10;62.30
3134;DHT22;1577;49.912;10.924;2023-05-18T08:38:57;21.60;63.80
3134;DHT22;1577;49.912;10.924;2023-05-18T08:42:04;21.40;63.60
3134;DHT22;1577;49.912;10.924;2023-05-18T08:44:49;20.60;64.20
3134;DHT22;1577;49.912;10.924;2023-05-18T08:47:16;20.10;64.10
3134;DHT22;1577;49.912;10.924;2023-05-18T08:49:42;19.50;66.00
3134;DHT22;1577;49.912;10.924;2023-05-18T08:52:17;19.30;66.10
3134;DHT22;1577;49.912;10.924;2023-05-18T08:54:43;19.00;65.90
3134;DHT22;1577;49.912;10.924;2023-05-18T08:57:09;18.80;64.60
3134;DHT22;1577;49.912;10.924;2023-05-18T08:59:41;18.70;65.30
3134;DHT22;1577;49.912;10.924;2023-05-18T09:02:07;19.00;66.20
3134;DHT22;1577;49.912;10.924;2023-05-18T09:04:32;19.60;66.30
3134;DHT22;1577;49.912;10.924;2023-05-18T09:07:03;19.90;65.50
3134;DHT22;1577;49.912;10.924;2023-05-18T09:09:30;20.00;66.60
3134;DHT22;1577;49.912;10.924;2023-05-18T09:11:56;20.00;65.80
3134;DHT22;1577;49.912;10.924;2023-05-18T09:14:26;20.30;64.90
3134;DHT22;1577;49.912;10.924;2023-05-18T09:16:52;20.60;62.00
3134;DHT22;1577;49.912;10.924;2023-05-18T09:19:18;19.90;62.10
3134;DHT22;1577;49.912;10.924;2023-05-18T09:21:45;19.70;63.60
3134;DHT22;1577;49.912;10.924;2023-05-18T09:24:11;19.30;64.10
3134;DHT22;1577;49.912;10.924;2023-05-18T09:26:39;18.70;64.70
3134;DHT22;1577;49.912;10.924;2023-05-18T09:29:15;18.10;66.20
3134;DHT22;1577;49.912;10.924;2023-05-18T09:31:41;18.20;67.10
3134;DHT22;1577;49.912;10.924;2023-05-18T09:34:07;18.50;65.60
3134;DHT22;1577;49.912;10.924;2023-05-18T09:36:33;18.40;66.50
3134;DHT22;1577;49.912;10.924;2023-05-18T09:38:59;18.40;65.10
3134;DHT22;1577;49.912;10.924;2023-05-18T09:41:25;18.30;66.20
3134;DHT22;1577;49.912;10.924;2023-05-18T09:43:52;18.30;66.60
3134;DHT22;1577;49.912;10.924;2023-05-18T09:46:19;18.40;67.20
3134;DHT22;1577;49.912;10.924;2023-05-18T09:48:49;18.20;66.10
3134;DHT22;1577;49.912;10.924;2023-05-18T09:51:15;18.10;66.90
3134;DHT22;1577;49.912;10.924;2023-05-18T09:53:47;17.80;66.60
3134;DHT22;1577;49.912;10.924;2023-05-18T09:56:16;17.60;66.90
3134;DHT22;1577;49.912;10.924;2023-05-18T09:58:45;17.50;67.50
3134;DHT22;1577;49.912;10.924;2023-05-18T10:01:11;17.40;68.30
3134;DHT22;1577;49.912;10.924;2023-05-18T10:03:37;17.50;67.30
3134;DHT22;1577;49.912;10.924;2023-05-18T10:06:07;17.60;67.60
3134;DHT22;1577;49.912;10.924;2023-05-18T10:08:36;17.80;66.10
3134;DHT22;1577;49.912;10.924;2023-05-18T10:11:02;17.80;66.00
3134;DHT22;1577;49.912;10.924;2023-05-18T10:13:29;17.60;65.30
3134;DHT22;1577;49.912;10.924;2023-05-18T10:16:00;17.60;65.60
3134;DHT22;1577;49.912;10.924;2023-05-18T10:18:31;17.50;65.90
3134;DHT22;1577;49.912;10.924;2023-05-18T10:20:58;17.20;65.50
3134;DHT22;1577;49.912;10.924;2023-05-18T10:23:29;17.10;66.10
3134;DHT22;1577;49.912;10.924;2023-05-18T10:25:56;17.00;65.80
3134;DHT22;1577;49.912;10.924;2023-05-18T10:28:32;17.00;66.80
3134;DHT22;1577;49.912;10.924;2023-05-18T10:31:01;17.30;68.40
3134;DHT22;1577;49.912;10.924;2023-05-18T10:33:30;17.40;65.30
3134;DHT22;1577;49.912;10.924;2023-05-18T10:35:56;17.30;66.30
3134;DHT22;1577;49.912;10.924;2023-05-18T10:38:26;17.30;67.00
3134;DHT22;1577;49.912;10.924;2023-05-18T10:40:57;17.30;66.30
3134;DHT22;1577;49.912;10.924;2023-05-18T10:43:25;17.40;66.80
3134;DHT22;1577;49.912;10.924;2023-05-18T10:45:56;17.40;66.50
3134;DHT22;1577;49.912;10.924;2023-05-18T10:48:23;17.40;66.50
3134;DHT22;1577;49.912;10.924;2023-05-18T10:50:50;17.20;66.60
3134;DHT22;1577;49.912;10.924;2023-05-18T10:53:22;17.20;68.00
3134;DHT22;1577;49.912;10.924;2023-05-18T10:55:49;17.20;67.70
3134;DHT22;1577;49.912;10.924;2023-05-18T10:58:17;17.10;68.20
3134;DHT22;1577;49.912;10.924;2023-05-18T11:00:50;16.90;68.80
3134;DHT22;1577;49.912;10.924;2023-05-18T11:03:18;17.00;67.90
3134;DHT22;1577;49.912;10.924;2023-05-18T11:05:49;17.10;66.50
3134;DHT22;1577;49.912;10.924;2023-05-18T11:08:24;17.00;66.60
3134;DHT22;1577;49.912;10.924;2023-05-18T11:11:01;16.90;67.80
3134;DHT22;1577;49.912;10.924;2023-05-18T11:13:31;16.90;68.30
3134;DHT22;1577;49.912;10.924;2023-05-18T11:18:46;16.90;69.10
3134;DHT22;1577;49.912;10.924;2023-05-18T11:21:29;16.90;70.70
3134;DHT22;1577;49.912;10.924;2023-05-18T11:24:21;16.80;70.40
3134;DHT22;1577;49.912;10.924;2023-05-18T11:26:52;16.60;69.70
3134;DHT22;1577;49.912;10.924;2023-05-18T11:31:51;16.50;71.30
3134;DHT22;1577;49.912;10.924;2023-05-18T11:34:45;16.60;71.00
3134;DHT22;1577;49.912;10.924;2023-05-18T11:40:03;16.60;69.40
3134;DHT22;1577;49.912;10.924;2023-05-18T11:42:33;16.60;68.90
3134;DHT22;1577;49.912;10.924;2023-05-18T11:45:06;16.70;69.70
3134;DHT22;1577;49.912;10.924;2023-05-18T11:47:32;16.70;70.30
3134;DHT22;1577;49.912;10.924;2023-05-18T11:49:59;16.90;70.20
3134;DHT22;1577;49.912;10.924;2023-05-18T11:52:25;16.90;68.60
3134;DHT22;1577;49.912;10.924;2023-05-18T11:55:00;17.00;68.90
3134;DHT22;1577;49.912;10.924;2023-05-18T11:57:38;17.10;69.70
3134;DHT22;1577;49.912;10.924;2023-05-18T12:00:08;17.00;68.30
3134;DHT22;1577;49.912;10.924;2023-05-18T12:02:41;17.00;70.70
3134;DHT22;1577;49.912;10.924;2023-05-18T12:05:08;17.10;69.40
3134;DHT22;1577;49.912;10.924;2023-05-18T12:07:34;17.20;68.80
3134;DHT22;1577;49.912;10.924;2023-05-18T12:10:07;17.30;69.20
3134;DHT22;1577;49.912;10.924;2023-05-18T12:12:33;17.40;67.30
3134;DHT22;1577;49.912;10.924;2023-05-18T12:15:00;17.50;67.50
3134;DHT22;1577;49.912;10.924;2023-05-18T12:17:42;17.60;67.30
3134;DHT22;1577;49.912;10.924;2023-05-18T12:20:10;17.50;67.90
3134;DHT22;1577;49.912;10.924;2023-05-18T12:22:38;17.30;67.90
3134;DHT22;1577;49.912;10.924;2023-05-18T12:25:03;17.20;67.30
3134;DHT22;1577;49.912;10.924;2023-05-18T12:27:29;17.10;66.90
3134;DHT22;1577;49.912;10.924;2023-05-18T12:29:55;17.00;67.90
3134;DHT22;1577;49.912;10.924;2023-05-18T12:32:20;17.10;68.40
3134;DHT22;1577;49.912;10.924;2023-05-18T12:34:46;17.10;66.80
3134;DHT22;1577;49.912;10.924;2023-05-18T12:37:11;17.00;67.20
3134;DHT22;1577;49.912;10.924;2023-05-18T12:39:37;16.90;66.90
3134;DHT22;1577;49.912;10.924;2023-05-18T12:42:13;16.90;67.10
3134;DHT22;1577;49.912;10.924;2023-05-18T12:44:41;17.00;67.70
3134;DHT22;1577;49.912;10.924;2023-05-18T12:47:13;17.10;66.70
3134;DHT22;1577;49.912;10.924;2023-05-18T12:49:40;17.30;68.40
3134;DHT22;1577;49.912;10.924;2023-05-18T12:52:10;17.30;67.50
3134;DHT22;1577;49.912;10.924;2023-05-18T12:54:46;17.20;66.80
3134;DHT22;1577;49.912;10.924;2023-05-18T12:57:15;17.10;67.90
3134;DHT22;1577;49.912;10.924;2023-05-18T12:59:47;17.10;67.30
3134;DHT22;1577;49.912;10.924;2023-05-18T13:05:09;17.30;67.70
3134;DHT22;1577;49.912;10.924;2023-05-18T13:07:37;17.40;68.80
3134;DHT22;1577;49.912;10.924;2023-05-18T13:10:06;17.70;68.00
3134;DHT22;1577;49.912;10.924;2023-05-18T13:12:38;18.00;67.70
3134;DHT22;1577;49.912;10.924;2023-05-18T13:17:37;17.80;66.40
3134;DHT22;1577;49.912;10.924;2023-05-18T13:20:10;17.70;67.40
3134;DHT22;1577;49.912;10.924;2023-05-18T13:22:36;17.50;66.70
3134;DHT22;1577;49.912;10.924;2023-05-18T13:25:01;17.40;67.20
3134;DHT22;1577;49.912;10.924;2023-05-18T13:27:28;17.40;68.30
3134;DHT22;1577;49.912;10.924;2023-05-18T13:29:54;17.40;69.00
3134;DHT22;1577;49.912;10.924;2023-05-18T13:32:22;17.50;67.40
3134;DHT22;1577;49.912;10.924;2023-05-18T13:34:48;17.60;67.50
3134;DHT22;1577;49.912;10.924;2023-05-18T13:37:14;17.60;67.90
3134;DHT22;1577;49.912;10.924;2023-05-18T13:39:40;17.50;66.80
3134;DHT22;1577;49.912;10.924;2023-05-18T13:42:05;17.50;67.90
3134;DHT22;1577;49.912;10.924;2023-05-18T13:44:32;17.50;67.00
3134;DHT22;1577;49.912;10.924;2023-05-18T13:46:58;17.50;68.00
3134;DHT22;1577;49.912;10.924;2023-05-18T13:49:24;17.60;68.30
3134;DHT22;1577;49.912;10.924;2023-05-18T13:51:49;17.80;67.30
3134;DHT22;1577;49.912;10.924;2023-05-18T13:54:15;17.90;66.50
3134;DHT22;1577;49.912;10.924;2023-05-18T13:56:40;17.90;67.00
3134;DHT22;1577;49.912;10.924;2023-05-18T13:59:06;18.00;66.30
3134;DHT22;1577;49.912;10.924;2023-05-18T14:01:31;18.00;67.50
3134;DHT22;1577;49.912;10.924;2023-05-18T14:03:57;18.00;66.90
3134;DHT22;1577;49.912;10.924;2023-05-18T14:06:23;17.90;67.10
3134;DHT22;1577;49.912;10.924;2023-05-18T14:08:48;17.90;67.20
3134;DHT22;1577;49.912;10.924;2023-05-18T14:11:14;18.00;66.90
3134;DHT22;1577;49.912;10.924;2023-05-18T14:13:39;18.00;67.60
3134;DHT22;1577;49.912;10.924;2023-05-18T14:16:05;18.00;68.70
3134;DHT22;1577;49.912;10.924;2023-05-18T14:18:31;18.10;67.50
3134;DHT22;1577;49.912;10.924;2023-05-18T14:20:56;18.00;67.40
3134;DHT22;1577;49.912;10.924;2023-05-18T14:23:26;17.90;66.90
3134;DHT22;1577;49.912;10.924;2023-05-18T14:25:52;17.90;66.70
3134;DHT22;1577;49.912;10.924;2023-05-18T14:28:18;17.90;67.30
3134;DHT22;1577;49.912;10.924;2023-05-18T14:30:43;17.80;67.20
3134;DHT22;1577;49.912;10.924;2023-05-18T14:33:09;17.90;67.30
3134;DHT22;1577;49.912;10.924;2023-05-18T14:35:34;17.80;68.30
3134;DHT22;1577;49.912;10.924;2023-05-18T14:38:00;17.80;68.00
3134;DHT22;1577;49.912;10.924;2023-05-18T14:40:27;17.70;67.90
3134;DHT22;1577;49.912;10.924;2023-05-18T14:42:52;17.70;67.70
3134;DHT22;1577;49.912;10.924;2023-05-18T14:45:18;17.70;67.00
3134;DHT22;1577;49.912;10.924;2023-05-18T14:47:44;17.70;67.10
3134;DHT22;1577;49.912;10.924;2023-05-18T14:50:10;17.90;68.70
3134;DHT22;1577;49.912;10.924;2023-05-18T14:52:35;18.00;66.20
3134;DHT22;1577;49.912;10.924;2023-05-18T14:55:01;18.00;67.40
3134;DHT22;1577;49.912;10.924;2023-05-18T14:57:27;18.20;67.10
3134;DHT22;1577;49.912;10.924;2023-05-18T14:59:52;18.20;68.30
3134;DHT22;1577;49.912;10.924;2023-05-18T15:02:18;18.20;68.30
3134;DHT22;1577;49.912;10.924;2023-05-18T15:04:43;18.10;67.50
3134;DHT22;1577;49.912;10.924;2023-05-18T15:07:09;18.00;68.90
3134;DHT22;1577;49.912;10.924;2023-05-18T15:09:35;17.90;68.80
3134;DHT22;1577;49.912;10.924;2023-05-18T15:12:01;17.80;69.30
3134;DHT22;1577;49.912;10.924;2023-05-18T15:14:26;17.70;68.80
3134;DHT22;1577;49.912;10.924;2023-05-18T15:16:52;17.60;69.70
3134;DHT22;1577;49.912;10.924;2023-05-18T15:19:17;17.50;69.90
3134;DHT22;1577;49.912;10.924;2023-05-18T15:21:43;17.60;69.40
3134;DHT22;1577;49.912;10.924;2023-05-18T15:24:09;17.60;68.50
3134;DHT22;1577;49.912;10.924;2023-05-18T15:26:35;17.70;68.10
3134;DHT22;1577;49.912;10.924;2023-05-18T15:29:01;17.70;69.60
3134;DHT22;1577;49.912;10.924;2023-05-18T15:31:26;17.90;70.00
3134;DHT22;1577;49.912;10.924;2023-05-18T15:33:52;18.10;70.50
3134;DHT22;1577;49.912;10.924;2023-05-18T15:36:17;18.30;68.90
3134;DHT22;1577;49.912;10.924;2023-05-18T15:38:43;18.30;68.80
3134;DHT22;1577;49.912;10.924;2023-05-18T15:41:09;18.20;67.70
3134;DHT22;1577;49.912;10.924;2023-05-18T15:43:35;18.00;67.80
3134;DHT22;1577;49.912;10.924;2023-05-18T15:46:05;17.70;68.00
3134;DHT22;1577;49.912;10.924;2023-05-18T15:48:30;17.50;68.70
3134;DHT22;1577;49.912;10.924;2023-05-18T15:50:56;17.50;68.70
3134;DHT22;1577;49.912;10.924;2023-05-18T15:53:21;17.40;70.20
3134;DHT22;1577;49.912;10.924;2023-05-18T15:55:47;17.30;70.30
3134;DHT22;1577;49.912;10.924;2023-05-18T15:58:15;17.20;71.00
3134;DHT22;1577;49.912;10.924;2023-05-18T16:00:41;17.10;70.10
3134;DHT22;1577;49.912;10.924;2023-05-18T16:03:06;17.00;70.60
3134;DHT22;1577;49.912;10.924;2023-05-18T16:05:33;16.90;71.20
3134;DHT22;1577;49.912;10.924;2023-05-18T16:07:58;16.90;71.90
3134;DHT22;1577;49.912;10.924;2023-05-18T16:10:24;17.00;71.30